Time;durP1;ratioP1;P1;durP2;ratioP2;P2;SDS_P1;SDS_P2;PMS_P1;PMS_P2;Temp;Humidity;BMP_temperature;BMP_pressure;BME280_temperature;BME280_humidity;BME280_pressure;Samples;Min_cycle;Max_cycle;Signal;HPM_P1;HPM_P2
2021/09/09 00:01:12;;;;;;;6.95;4.85;;;20.60;80.70;;;;;;4919330;29;20095;-83
2021/09/09 00:03:37;;;;;;;7.32;4.88;;;20.60;81.60;;;;;;4917840;29;20492;-83
2021/09/09 00:06:03;;;;;;;7.68;4.70;;;20.60;81.00;;;;;;4918698;29;20047;-83
2021/09/09 00:08:29;;;;;;;7.82;4.55;;;20.50;81.20;;;;;;4918656;29;20058;-84
2021/09/09 00:10:55;;;;;;;6.78;4.80;;;20.50;81.20;;;;;;4917925;29;20097;-84
2021/09/09 00:13:21;;;;;;;7.45;5.25;;;20.50;81.40;;;;;;4918227;29;20058;-84
2021/09/09 00:15:47;;;;;;;8.90;5.47;;;20.40;81.60;;;;;;4918632;29;20047;-84
2021/09/09 00:18:12;;;;;;;6.97;4.93;;;20.40;81.80;;;;;;4918264;29;20054;-84
2021/09/09 00:20:38;;;;;;;9.40;5.18;;;20.30;81.70;;;;;;4918340;29;20047;-84
2021/09/09 00:23:04;;;;;;;8.38;4.97;;;20.30;82.10;;;;;;4918406;29;20052;-84
2021/09/09 00:25:29;;;;;;;7.65;5.07;;;20.20;82.30;;;;;;4917692;29;20814;-82
2021/09/09 00:27:55;;;;;;;7.28;5.22;;;20.20;82.50;;;;;;4918247;29;20160;-85
2021/09/09 00:30:20;;;;;;;8.38;5.05;;;20.10;82.70;;;;;;4917711;29;20484;-84
2021/09/09 00:32:46;;;;;;;7.70;5.05;;;20.10;82.90;;;;;;4917443;29;20126;-84
2021/09/09 00:35:12;;;;;;;8.10;5.28;;;20.10;82.90;;;;;;4918980;29;20088;-84
2021/09/09 00:37:37;;;;;;;7.15;5.10;;;20.00;82.90;;;;;;4918510;29;20059;-84
2021/09/09 00:40:04;;;;;;;7.47;5.07;;;20.00;83.30;;;;;;4918239;29;20047;-84
2021/09/09 00:42:30;;;;;;;7.78;5.22;;;19.90;83.40;;;;;;4918130;29;20126;-84
2021/09/09 00:44:55;;;;;;;8.05;5.35;;;19.90;83.50;;;;;;4917558;29;20083;-84
2021/09/09 00:47:21;;;;;;;7.82;4.85;;;19.90;83.40;;;;;;4918079;29;20091;-84
2021/09/09 00:49:46;;;;;;;7.30;5.00;;;19.80;83.70;;;;;;4935487;29;20051;-84
2021/09/09 00:52:14;;;;;;;7.50;4.97;;;19.80;83.80;;;;;;4917967;29;20052;-84
2021/09/09 00:54:41;;;;;;;9.85;5.15;;;19.80;84.00;;;;;;4918069;29;20094;-84
2021/09/09 00:57:08;;;;;;;7.80;5.05;;;19.80;84.00;;;;;;4918369;29;20051;-84
2021/09/09 00:59:34;;;;;;;9.77;5.10;;;19.70;83.90;;;;;;4917422;29;20052;-84
2021/09/09 01:02:01;;;;;;;7.22;4.90;;;19.70;83.90;;;;;;4917716;29;20395;-84
2021/09/09 01:04:26;;;;;;;7.30;4.60;;;19.60;83.80;;;;;;4918327;29;20086;-84
2021/09/09 01:06:55;;;;;;;7.25;5.15;;;19.60;83.70;;;;;;4918453;29;20079;-84
2021/09/09 01:09:21;;;;;;;7.68;5.28;;;19.50;83.80;;;;;;4939458;29;20050;-84
2021/09/09 01:11:47;;;;;;;7.72;5.40;;;19.50;83.70;;;;;;4921616;29;20076;-84
2021/09/09 01:14:15;;;;;;;7.93;5.28;;;19.50;83.70;;;;;;4938116;29;20047;-84
2021/09/09 01:16:42;;;;;;;8.55;5.00;;;19.50;83.70;;;;;;4921311;29;20044;-84
2021/09/09 01:19:09;;;;;;;8.23;5.32;;;19.40;83.60;;;;;;4921437;29;20063;-84
2021/09/09 01:21:36;;;;;;;8.20;5.32;;;19.40;83.60;;;;;;4937467;29;20090;-84
2021/09/09 01:24:02;;;;;;;7.95;5.28;;;19.40;83.70;;;;;;4923077;29;20051;-84
2021/09/09 01:26:30;;;;;;;9.02;5.63;;;19.40;83.80;;;;;;4921641;29;20063;-84
2021/09/09 01:28:56;;;;;;;8.07;5.45;;;19.30;83.70;;;;;;4938985;29;20043;-84
2021/09/09 01:31:22;;;;;;;8.82;5.60;;;19.30;83.50;;;;;;4939356;29;20050;-83
2021/09/09 01:33:53;;;;;;;7.65;5.65;;;19.30;83.60;;;;;;4921108;29;20048;-84
2021/09/09 01:36:18;;;;;;;7.82;5.47;;;19.30;83.80;;;;;;4922392;29;20468;-84
2021/09/09 01:38:44;;;;;;;9.95;5.63;;;19.30;83.60;;;;;;4921297;29;20099;-85
2021/09/09 01:41:09;;;;;;;7.43;5.78;;;19.20;83.50;;;;;;4920368;29;20044;-84
2021/09/09 01:43:35;;;;;;;7.47;4.95;;;19.20;83.70;;;;;;4920959;29;20053;-84
2021/09/09 01:46:01;;;;;;;7.82;5.82;;;19.10;84.00;;;;;;4921635;29;20130;-84
2021/09/09 01:48:26;;;;;;;8.35;5.68;;;19.10;84.10;;;;;;4921080;29;20507;-84
2021/09/09 01:50:52;;;;;;;8.75;5.90;;;19.10;84.40;;;;;;4938878;29;20572;-84
2021/09/09 01:53:17;;;;;;;9.20;5.65;;;19.10;84.70;;;;;;4921941;29;20058;-84
2021/09/09 01:55:43;;;;;;;7.97;5.70;;;19.00;84.70;;;;;;4920811;29;20060;-84
2021/09/09 01:58:08;;;;;;;9.32;6.07;;;19.00;84.90;;;;;;4922359;29;20047;-84
2021/09/09 02:00:34;;;;;;;10.60;5.75;;;18.90;85.00;;;;;;4921412;29;20111;-84
2021/09/09 02:02:59;;;;;;;9.15;6.00;;;18.90;85.20;;;;;;4920364;29;20106;-84
2021/09/09 02:05:25;;;;;;;8.60;5.85;;;18.90;85.30;;;;;;4921827;29;20150;-84
2021/09/09 02:07:50;;;;;;;7.78;5.50;;;18.90;85.40;;;;;;4921519;29;20115;-84
2021/09/09 02:10:19;;;;;;;8.43;6.07;;;18.80;85.40;;;;;;4921058;29;20044;-84
2021/09/09 02:12:46;;;;;;;10.23;5.85;;;18.80;85.30;;;;;;4921489;29;20048;-84
2021/09/09 02:15:12;;;;;;;9.65;6.13;;;18.70;85.40;;;;;;4921257;29;20048;-84
2021/09/09 02:17:37;;;;;;;7.95;5.88;;;18.70;85.60;;;;;;4920470;29;20385;-84
2021/09/09 02:20:05;;;;;;;7.75;5.65;;;18.70;85.70;;;;;;4921760;29;20099;-84
2021/09/09 02:22:30;;;;;;;11.30;6.10;;;18.70;85.70;;;;;;4921129;29;20056;-84
2021/09/09 02:24:56;;;;;;;10.60;6.20;;;18.60;85.70;;;;;;4919973;29;20047;-84
2021/09/09 02:27:21;;;;;;;7.97;6.07;;;18.60;85.80;;;;;;4920526;29;20048;-84
2021/09/09 02:29:47;;;;;;;9.50;6.40;;;18.60;85.70;;;;;;4919991;29;20065;-84
2021/09/09 02:32:12;;;;;;;8.88;6.00;;;18.60;85.80;;;;;;4937791;29;20495;-83
2021/09/09 02:34:38;;;;;;;9.60;6.00;;;18.50;85.80;;;;;;4937489;29;20087;-84
2021/09/09 02:37:04;;;;;;;8.02;6.03;;;18.50;85.90;;;;;;4920158;29;20048;-84
2021/09/09 02:39:30;;;;;;;9.32;5.57;;;18.50;85.90;;;;;;4920864;29;20054;-83
2021/09/09 02:41:55;;;;;;;8.90;5.88;;;18.40;85.90;;;;;;4921022;29;20134;-83
2021/09/09 02:44:21;;;;;;;9.35;6.30;;;18.40;86.00;;;;;;4937540;29;20043;-83
2021/09/09 02:46:47;;;;;;;9.88;6.00;;;18.40;86.00;;;;;;4937730;29;20475;-84
2021/09/09 02:49:13;;;;;;;8.98;6.65;;;18.30;86.00;;;;;;4921179;29;20055;-84
2021/09/09 02:51:38;;;;;;;8.60;6.28;;;18.30;86.00;;;;;;4936878;29;20043;-84
2021/09/09 02:54:04;;;;;;;9.52;6.30;;;18.30;86.00;;;;;;4938083;29;20083;-84
2021/09/09 02:56:31;;;;;;;8.73;6.45;;;18.30;86.10;;;;;;4937647;29;20071;-83
2021/09/09 02:58:58;;;;;;;10.50;6.53;;;18.20;86.10;;;;;;4919991;29;20056;-84
2021/09/09 03:01:24;;;;;;;8.45;6.00;;;18.20;86.20;;;;;;4937531;29;20044;-84
2021/09/09 03:03:50;;;;;;;9.32;6.45;;;18.10;86.10;;;;;;4937305;29;20075;-84
2021/09/09 03:06:15;;;;;;;8.85;6.13;;;18.10;86.20;;;;;;4920460;29;20114;-84
2021/09/09 03:08:41;;;;;;;9.02;6.13;;;18.10;86.30;;;;;;4920215;29;20381;-83
2021/09/09 03:11:07;;;;;;;9.88;6.43;;;18.10;86.40;;;;;;4920629;29;20044;-84
2021/09/09 03:13:32;;;;;;;8.82;6.22;;;18.00;86.30;;;;;;4919944;29;20051;-82
2021/09/09 03:15:58;;;;;;;9.52;6.55;;;18.00;86.40;;;;;;4920263;29;20052;-84
2021/09/09 03:18:24;;;;;;;8.68;6.57;;;18.00;86.60;;;;;;4920836;29;20138;-84
2021/09/09 03:20:49;;;;;;;8.60;6.18;;;17.90;86.70;;;;;;4919507;29;20067;-84
2021/09/09 03:23:15;;;;;;;9.93;6.82;;;17.90;86.90;;;;;;4920625;29;20055;-84
2021/09/09 03:25:40;;;;;;;9.45;6.60;;;17.90;87.00;;;;;;4920338;29;20082;-85
2021/09/09 03:28:06;;;;;;;9.38;6.55;;;17.90;87.10;;;;;;4936719;29;20044;-84
2021/09/09 03:30:31;;;;;;;8.68;6.43;;;17.80;87.00;;;;;;4936498;29;20047;-84
2021/09/09 03:32:57;;;;;;;9.18;6.30;;;17.80;87.00;;;;;;4919747;29;20078;-84
2021/09/09 03:35:23;;;;;;;11.68;6.82;;;17.80;87.20;;;;;;4919405;29;20052;-84
2021/09/09 03:37:48;;;;;;;10.98;6.82;;;17.80;87.30;;;;;;4936254;29;20051;-84
2021/09/09 03:40:14;;;;;;;9.23;6.45;;;17.70;87.90;;;;;;4918633;29;20059;-84
2021/09/09 03:42:39;;;;;;;8.48;6.53;;;17.70;87.10;;;;;;4918957;29;20051;-84
2021/09/09 03:45:05;;;;;;;10.10;6.82;;;17.70;87.10;;;;;;4918854;29;20567;-84
2021/09/09 03:47:31;;;;;;;11.05;6.75;;;17.70;87.20;;;;;;4935619;29;20388;-84
2021/09/09 03:49:57;;;;;;;9.75;6.47;;;17.70;87.30;;;;;;4919532;29;20091;-84
2021/09/09 03:52:23;;;;;;;9.32;6.60;;;17.70;87.30;;;;;;4919255;29;20040;-84
2021/09/09 03:54:49;;;;;;;9.00;6.90;;;17.60;87.20;;;;;;4919012;29;20095;-84
2021/09/09 03:57:15;;;;;;;11.70;6.85;;;17.60;87.30;;;;;;4919571;29;20567;-84
2021/09/09 03:59:40;;;;;;;10.32;6.82;;;17.60;87.30;;;;;;4919836;29;20395;-84
2021/09/09 04:02:06;;;;;;;11.57;7.00;;;17.50;87.50;;;;;;4918292;29;20076;-84
2021/09/09 04:04:32;;;;;;;10.43;7.13;;;17.50;87.40;;;;;;4919140;29;20087;-84
2021/09/09 04:06:57;;;;;;;9.35;7.05;;;17.50;87.60;;;;;;4919257;29;20099;-84
2021/09/09 04:09:23;;;;;;;9.35;6.82;;;17.50;87.50;;;;;;4918467;29;20573;-84
2021/09/09 04:11:49;;;;;;;9.80;7.10;;;17.40;87.40;;;;;;4919334;29;20051;-84
2021/09/09 04:14:14;;;;;;;9.40;6.60;;;17.40;87.60;;;;;;4919507;29;20047;-84
2021/09/09 04:16:40;;;;;;;9.93;6.90;;;17.40;87.60;;;;;;4918429;29;20051;-84
2021/09/09 04:19:06;;;;;;;10.13;6.90;;;17.30;87.60;;;;;;4936650;29;20070;-84
2021/09/09 04:21:31;;;;;;;11.70;7.55;;;17.30;87.60;;;;;;4918907;29;20048;-84
2021/09/09 04:23:57;;;;;;;9.70;7.40;;;17.20;87.60;;;;;;4918868;29;20505;-84
2021/09/09 04:26:23;;;;;;;11.77;6.93;;;17.20;87.80;;;;;;4919591;29;20051;-84
2021/09/09 04:28:48;;;;;;;10.07;7.30;;;17.20;88.00;;;;;;4919372;29;20083;-83
2021/09/09 04:31:14;;;;;;;10.07;7.00;;;17.20;88.10;;;;;;4918130;29;20051;-84
2021/09/09 04:33:39;;;;;;;9.10;6.90;;;17.20;88.00;;;;;;4935943;29;20051;-83
2021/09/09 04:36:05;;;;;;;10.48;7.15;;;17.10;88.00;;;;;;4918942;29;20048;-84
2021/09/09 04:38:31;;;;;;;11.63;7.32;;;17.10;88.10;;;;;;4918113;29;20052;-84
2021/09/09 04:40:56;;;;;;;10.50;7.28;;;17.10;88.20;;;;;;4935663;29;20058;-84
2021/09/09 04:43:22;;;;;;;9.18;6.78;;;17.10;88.10;;;;;;4935401;29;20047;-84
2021/09/09 04:45:47;;;;;;;9.63;6.88;;;17.00;88.10;;;;;;4918313;29;20156;-84
2021/09/09 04:48:13;;;;;;;9.32;6.35;;;17.00;88.30;;;;;;4918585;29;20052;-83
2021/09/09 04:50:39;;;;;;;9.80;6.60;;;17.00;88.30;;;;;;4934234;29;20052;-84
2021/09/09 04:53:04;;;;;;;9.85;7.50;;;16.90;88.70;;;;;;4919247;29;20511;-84
2021/09/09 04:55:30;;;;;;;9.38;7.28;;;16.90;88.70;;;;;;4918725;29;20492;-84
2021/09/09 04:57:56;;;;;;;9.73;7.18;;;16.90;88.80;;;;;;4917954;29;20048;-84
2021/09/09 05:00:21;;;;;;;10.05;7.50;;;16.90;89.00;;;;;;4918356;29;20135;-83
2021/09/09 05:02:47;;;;;;;11.52;7.40;;;16.90;89.10;;;;;;4917456;29;20056;-83
2021/09/09 05:05:13;;;;;;;10.70;7.47;;;16.90;89.30;;;;;;4918386;29;20044;-84
2021/09/09 05:07:39;;;;;;;9.05;6.82;;;16.90;89.10;;;;;;4918441;29;20079;-84
2021/09/09 05:10:06;;;;;;;9.13;7.15;;;16.90;89.20;;;;;;4918564;29;20134;-83
2021/09/09 05:12:31;;;;;;;9.73;7.57;;;16.90;89.10;;;;;;4917233;29;20042;-83
2021/09/09 05:14:57;;;;;;;10.15;7.93;;;16.80;89.20;;;;;;4918541;29;20039;-83
2021/09/09 05:17:22;;;;;;;11.73;8.10;;;16.80;89.10;;;;;;4905378;29;20389;-84
2021/09/09 05:19:48;;;;;;;9.18;7.05;;;16.80;89.20;;;;;;4914532;29;20048;-84
2021/09/09 05:22:13;;;;;;;11.80;8.20;;;16.80;89.40;;;;;;4915269;29;20048;-83
2021/09/09 05:24:39;;;;;;;10.23;7.50;;;16.80;89.40;;;;;;4917799;29;20480;-84
2021/09/09 05:27:05;;;;;;;10.45;8.18;;;16.80;89.40;;;;;;4917727;29;20043;-83
2021/09/09 05:29:30;;;;;;;9.85;7.38;;;16.70;89.10;;;;;;4918614;29;20082;-84
2021/09/09 05:31:56;;;;;;;10.48;8.35;;;16.70;89.00;;;;;;4918413;29;20040;-82
2021/09/09 05:34:21;;;;;;;9.80;7.15;;;16.70;89.20;;;;;;4935415;29;20040;-91
2021/09/09 05:36:47;;;;;;;10.10;7.80;;;16.70;89.10;;;;;;4920185;29;20199;-90
2021/09/09 05:39:12;;;;;;;12.02;7.85;;;16.60;89.00;;;;;;4937219;29;20063;-91
2021/09/09 05:41:38;;;;;;;10.40;7.70;;;16.70;89.20;;;;;;4916262;29;20054;-92
2021/09/09 05:44:04;;;;;;;9.90;7.97;;;16.60;88.70;;;;;;4910594;29;20119;-82
2021/09/09 05:46:29;;;;;;;11.20;7.97;;;16.60;88.50;;;;;;4918215;29;20111;-83
2021/09/09 05:48:55;;;;;;;10.48;7.80;;;16.60;88.70;;;;;;4914040;29;20241;-83
2021/09/09 05:51:20;;;;;;;10.70;7.70;;;16.50;88.40;;;;;;4916037;29;20048;-84
2021/09/09 05:53:46;;;;;;;11.07;7.85;;;16.50;88.30;;;;;;4916232;29;20052;-83
2021/09/09 05:56:11;;;;;;;11.73;7.47;;;16.50;88.60;;;;;;4921010;29;20043;-83
2021/09/09 05:58:38;;;;;;;11.30;8.68;;;16.50;88.20;;;;;;4921868;29;20040;-83
2021/09/09 06:01:04;;;;;;;10.00;7.50;;;16.50;88.50;;;;;;4921226;29;20051;-84
2021/09/09 06:03:31;;;;;;;10.95;7.72;;;16.40;88.20;;;;;;4921392;29;20059;-83
2021/09/09 06:06:03;;;;;;;9.52;7.55;;;16.40;88.40;;;;;;4921630;29;20044;-83
2021/09/09 06:08:34;;;;;;;11.32;7.95;;;16.40;88.40;;;;;;4920912;29;20047;-84
2021/09/09 06:11:00;;;;;;;10.38;8.27;;;16.40;88.50;;;;;;4902612;29;20075;-84
2021/09/09 06:13:26;;;;;;;9.93;7.80;;;16.40;88.70;;;;;;4902268;29;20095;-83
2021/09/09 06:15:52;;;;;;;10.80;8.00;;;16.40;88.40;;;;;;4901255;29;20404;-83
2021/09/09 06:18:17;;;;;;;10.05;8.25;;;16.40;88.00;;;;;;4902635;29;20473;-83
2021/09/09 06:20:43;;;;;;;11.05;8.38;;;16.40;88.20;;;;;;4902836;29;20490;-84
2021/09/09 06:23:11;;;;;;;11.88;8.60;;;16.40;88.50;;;;;;4901453;29;20123;-83
2021/09/09 06:25:36;;;;;;;10.73;7.97;;;16.40;88.80;;;;;;4918542;29;20040;-83
2021/09/09 06:28:02;;;;;;;10.35;7.80;;;16.40;88.40;;;;;;4901527;29;20044;-83
2021/09/09 06:30:28;;;;;;;11.00;8.43;;;16.40;88.60;;;;;;4901472;29;20083;-83
2021/09/09 06:32:53;;;;;;;11.15;8.15;;;16.40;88.40;;;;;;4902377;29;20055;-83
2021/09/09 06:35:19;;;;;;;12.63;9.98;;;16.50;88.50;;;;;;4919051;29;20084;-83
2021/09/09 06:37:46;;;;;;;12.35;9.05;;;16.40;88.60;;;;;;4901198;29;20115;-83
2021/09/09 06:40:11;;;;;;;11.57;8.00;;;16.40;88.60;;;;;;4902342;29;20040;-83
2021/09/09 06:42:39;;;;;;;11.80;8.40;;;16.50;88.90;;;;;;4901562;29;20052;-83
2021/09/09 06:45:06;;;;;;;11.25;8.10;;;16.50;88.90;;;;;;4901115;29;20048;-83
2021/09/09 06:47:31;;;;;;;11.93;9.02;;;16.60;88.80;;;;;;4902343;29;20071;-83
2021/09/09 06:49:57;;;;;;;10.95;8.73;;;16.70;88.50;;;;;;4900665;29;20036;-83
2021/09/09 06:52:22;;;;;;;11.95;8.93;;;16.70;88.30;;;;;;4901391;29;20043;-83
2021/09/09 06:54:48;;;;;;;13.40;8.95;;;16.70;88.50;;;;;;4901088;29;20052;-83
2021/09/09 06:57:13;;;;;;;11.93;8.73;;;16.80;88.10;;;;;;4901093;29;20042;-83
2021/09/09 06:59:39;;;;;;;15.13;10.57;;;16.80;87.80;;;;;;4901442;29;20488;-83
2021/09/09 07:02:05;;;;;;;13.30;10.55;;;16.90;88.00;;;;;;4901941;29;20401;-82
2021/09/09 07:04:31;;;;;;;13.43;10.77;;;16.90;88.10;;;;;;4905533;29;20048;-83
2021/09/09 07:06:56;;;;;;;15.85;11.65;;;17.00;88.40;;;;;;4920892;29;20043;-83
2021/09/09 07:09:22;;;;;;;16.42;10.52;;;17.00;88.20;;;;;;4919839;29;20050;-84
2021/09/09 07:11:47;;;;;;;19.17;14.10;;;17.10;88.00;;;;;;4912651;29;20126;-84
2021/09/09 07:14:13;;;;;;;16.25;12.43;;;17.20;88.90;;;;;;4915973;29;20396;-84
2021/09/09 07:16:39;;;;;;;16.05;12.80;;;17.30;88.40;;;;;;4936778;29;20123;-84
2021/09/09 07:19:04;;;;;;;19.23;14.18;;;17.40;88.10;;;;;;4936859;29;20048;-84
2021/09/09 07:21:30;;;;;;;13.43;9.07;;;17.40;88.40;;;;;;4937558;29;20044;-84
2021/09/09 07:23:55;;;;;;;12.05;9.85;;;17.50;87.80;;;;;;4936223;29;20039;-84
2021/09/09 07:26:21;;;;;;;15.10;11.82;;;17.60;87.40;;;;;;4919414;29;20062;-86
2021/09/09 07:28:47;;;;;;;15.90;11.55;;;17.70;87.40;;;;;;4919798;29;20492;-86
2021/09/09 07:31:12;;;;;;;18.00;12.82;;;17.70;87.50;;;;;;4913677;29;20048;-85
2021/09/09 07:33:38;;;;;;;15.07;10.38;;;17.80;87.40;;;;;;4919289;29;20055;-85
2021/09/09 07:36:07;;;;;;;17.55;13.13;;;17.90;86.90;;;;;;4918574;29;20487;-84
2021/09/09 07:38:33;;;;;;;19.08;14.85;;;18.00;86.90;;;;;;4919476;29;20055;-84
2021/09/09 07:40:59;;;;;;;13.88;11.20;;;18.10;87.10;;;;;;4918715;29;20151;-85
2021/09/09 07:43:25;;;;;;;19.33;14.57;;;18.20;86.30;;;;;;4919873;29;20126;-83
2021/09/09 07:45:50;;;;;;;15.38;11.00;;;18.20;87.50;;;;;;4928653;29;20052;-84
2021/09/09 07:48:16;;;;;;;17.92;13.38;;;18.40;87.10;;;;;;4908977;29;20130;-83
2021/09/09 07:50:44;;;;;;;17.27;11.63;;;18.50;87.30;;;;;;4909029;29;20076;-83
2021/09/09 07:53:10;;;;;;;18.08;13.35;;;18.50;86.70;;;;;;4906518;29;20180;-83
2021/09/09 07:55:36;;;;;;;15.95;10.93;;;18.60;87.20;;;;;;4908911;29;20072;-84
2021/09/09 07:58:01;;;;;;;15.52;12.63;;;18.70;86.60;;;;;;4904268;29;20104;-83
2021/09/09 08:00:27;;;;;;;17.33;13.35;;;18.80;86.40;;;;;;4907944;29;20043;-83
2021/09/09 08:02:53;;;;;;;13.40;10.05;;;18.90;87.00;;;;;;4906535;29;20056;-83
2021/09/09 08:05:18;;;;;;;14.98;11.35;;;19.00;86.50;;;;;;4906467;29;20051;-83
2021/09/09 08:07:46;;;;;;;18.17;12.43;;;19.10;86.70;;;;;;4910281;29;20112;-85
2021/09/09 08:10:14;;;;;;;16.40;11.30;;;19.20;87.10;;;;;;4907569;29;20067;-83
2021/09/09 08:12:40;;;;;;;17.67;12.70;;;19.30;86.60;;;;;;4910106;29;20072;-86
2021/09/09 08:15:07;;;;;;;16.67;14.05;;;19.40;87.30;;;;;;4925474;28;20035;-86
2021/09/09 08:17:33;;;;;;;17.42;12.60;;;19.50;87.70;;;;;;4901254;29;20084;-85
2021/09/09 08:20:00;;;;;;;14.43;10.75;;;19.60;87.70;;;;;;4904274;29;20407;-84
2021/09/09 08:22:26;;;;;;;16.67;12.52;;;19.70;87.00;;;;;;4906405;29;20441;-81
2021/09/09 08:24:53;;;;;;;19.20;12.48;;;19.80;86.30;;;;;;4907948;29;20492;-83
2021/09/09 08:27:19;;;;;;;18.98;12.57;;;19.90;87.50;;;;;;4906152;29;20043;-84
2021/09/09 08:29:44;;;;;;;15.65;11.90;;;20.00;86.20;;;;;;4907470;29;20052;-83
2021/09/09 08:32:10;;;;;;;14.02;10.85;;;20.10;85.60;;;;;;4907418;29;20370;-84
2021/09/09 08:34:36;;;;;;;15.00;11.85;;;20.30;85.30;;;;;;4909269;29;20142;-82
2021/09/09 08:37:01;;;;;;;15.50;10.85;;;20.40;85.30;;;;;;4903614;29;20044;-81
2021/09/09 08:39:27;;;;;;;14.95;12.75;;;20.50;84.90;;;;;;4902253;29;20052;-82
2021/09/09 08:41:53;;;;;;;16.08;11.27;;;20.60;84.90;;;;;;4917001;29;20052;-81
2021/09/09 08:44:18;;;;;;;15.00;11.55;;;20.70;84.60;;;;;;4907246;29;20059;-81
2021/09/09 08:46:44;;;;;;;14.45;12.20;;;20.70;84.20;;;;;;4902575;29;20119;-81
2021/09/09 08:49:10;;;;;;;13.25;10.27;;;20.90;84.30;;;;;;4901829;29;20067;-82
2021/09/09 08:51:36;;;;;;;13.45;10.10;;;21.00;83.90;;;;;;4900205;29;20066;-82
2021/09/09 08:54:02;;;;;;;16.73;11.90;;;21.00;83.70;;;;;;4921685;29;20048;-82
2021/09/09 08:56:28;;;;;;;16.23;11.80;;;21.10;84.20;;;;;;4934954;29;20527;-82
2021/09/09 08:58:53;;;;;;;15.80;11.82;;;21.20;84.00;;;;;;4912142;29;20072;-82
2021/09/09 09:01:19;;;;;;;15.60;11.10;;;21.30;83.70;;;;;;4904081;29;20094;-81
2021/09/09 09:03:50;;;;;;;14.13;11.07;;;21.40;83.50;;;;;;4907037;29;20143;-81
2021/09/09 09:06:22;;;;;;;13.75;10.35;;;21.60;83.00;;;;;;4918256;29;20044;-81
2021/09/09 09:08:55;;;;;;;14.52;10.48;;;21.70;83.00;;;;;;4905093;29;20547;-82
2021/09/09 09:11:29;;;;;;;15.52;10.98;;;21.70;83.10;;;;;;4928137;29;20119;-82
2021/09/09 09:14:02;;;;;;;16.10;11.18;;;21.80;82.70;;;;;;4904965;29;20082;-82
2021/09/09 09:16:31;;;;;;;16.02;10.52;;;21.90;82.70;;;;;;4902938;29;20059;-82
2021/09/09 09:18:58;;;;;;;12.55;10.05;;;22.00;82.40;;;;;;4904421;29;20040;-82
2021/09/09 09:21:26;;;;;;;15.77;10.57;;;22.10;82.60;;;;;;4917551;29;20044;-81
2021/09/09 09:23:54;;;;;;;12.45;9.45;;;22.20;82.80;;;;;;4908777;29;20063;-83
2021/09/09 09:26:20;;;;;;;12.75;9.52;;;22.30;82.40;;;;;;4908510;29;20047;-83
2021/09/09 09:28:47;;;;;;;14.57;10.13;;;22.40;81.40;;;;;;4901759;29;20047;-81
2021/09/09 09:31:20;;;;;;;12.95;8.77;;;22.50;81.10;;;;;;4910666;29;20044;-80
2021/09/09 09:34:04;;;;;;;11.45;8.80;;;22.60;81.10;;;;;;4912131;29;20040;-81
2021/09/09 09:36:42;;;;;;;11.98;9.32;;;22.70;81.50;;;;;;4906916;29;20381;-81
2021/09/09 09:39:13;;;;;;;14.13;9.38;;;22.80;81.20;;;;;;4909169;29;21566;-82
2021/09/09 09:41:41;;;;;;;13.05;8.52;;;22.90;80.10;;;;;;4925197;29;20575;-82
2021/09/09 09:44:09;;;;;;;11.48;8.63;;;23.00;80.00;;;;;;4910015;29;20048;-81
2021/09/09 09:46:40;;;;;;;13.05;8.65;;;23.10;79.90;;;;;;4902960;29;20048;-82
2021/09/09 09:49:25;;;;;;;10.52;8.07;;;23.20;80.40;;;;;;4908610;29;20048;-81
2021/09/09 09:52:00;;;;;;;10.68;8.18;;;23.30;78.70;;;;;;4906893;29;20091;-83
2021/09/09 09:54:26;;;;;;;10.70;8.07;;;23.40;79.70;;;;;;4906423;29;20181;-91
2021/09/09 09:56:53;;;;;;;10.23;8.35;;;23.50;78.70;;;;;;4912232;29;20043;-88
2021/09/09 09:59:19;;;;;;;9.80;8.07;;;23.60;77.90;;;;;;4912228;29;20050;-87
2021/09/09 10:01:48;;;;;;;10.10;7.80;;;23.70;77.30;;;;;;4918020;29;20043;-86
2021/09/09 10:04:19;;;;;;;11.40;7.35;;;23.80;76.10;;;;;;4910312;29;20055;-87
2021/09/09 10:06:50;;;;;;;12.23;8.38;;;23.90;76.40;;;;;;4903405;29;20116;-84
2021/09/09 10:09:17;;;;;;;10.52;7.75;;;24.00;75.00;;;;;;4921770;29;20063;-84
2021/09/09 10:11:43;;;;;;;11.25;8.20;;;24.00;73.40;;;;;;4936180;29;20043;-85
2021/09/09 10:14:18;;;;;;;12.07;7.78;;;24.10;72.60;;;;;;4929689;29;20374;-83
2021/09/09 10:16:44;;;;;;;13.00;8.02;;;24.20;71.90;;;;;;4901971;29;20437;-84
2021/09/09 10:19:14;;;;;;;12.65;7.70;;;24.30;71.70;;;;;;4930774;29;20130;-84
2021/09/09 10:21:46;;;;;;;10.52;7.70;;;24.40;70.90;;;;;;4920134;29;20059;-84
2021/09/09 10:24:28;;;;;;;11.37;7.33;;;24.50;70.70;;;;;;4938733;29;20523;-89
2021/09/09 10:30:28;;;;;;;9.55;7.30;;;24.60;70.10;;;;;;5114920;23;20052;-88
2021/09/09 10:32:57;;;;;;;10.63;7.70;;;24.70;73.20;;;;;;4903692;29;20056;-90
2021/09/09 10:35:30;;;;;;;10.05;7.60;;;24.80;73.30;;;;;;4920605;29;20050;-86
2021/09/09 10:38:23;;;;;;;10.20;7.13;;;24.90;71.20;;;;;;4920779;29;20047;-86
2021/09/09 10:40:59;;;;;;;13.73;7.40;;;25.00;72.50;;;;;;4919945;29;20515;-85
2021/09/09 10:43:24;;;;;;;9.35;7.40;;;25.00;70.70;;;;;;4921396;29;20044;-85
2021/09/09 10:46:00;;;;;;;13.15;7.93;;;25.10;69.70;;;;;;4921451;29;20249;-85
2021/09/09 10:48:28;;;;;;;10.18;8.07;;;25.20;69.20;;;;;;4919213;29;20135;-86
2021/09/09 10:50:58;;;;;;;11.93;7.38;;;25.30;71.90;;;;;;4936361;29;20066;-86
2021/09/09 10:53:38;;;;;;;9.40;7.13;;;25.40;72.80;;;;;;4923619;29;20396;-85
2021/09/09 10:56:08;;;;;;;10.23;7.50;;;25.50;71.90;;;;;;4901617;29;20400;-85
2021/09/09 10:58:33;;;;;;;9.85;7.22;;;25.60;71.50;;;;;;4918391;29;20127;-86
2021/09/09 11:01:05;;;;;;;8.57;6.65;;;25.60;71.30;;;;;;4918401;29;20139;-86
2021/09/09 11:03:46;;;;;;;9.52;7.13;;;25.70;73.50;;;;;;4919017;29;20036;-85
2021/09/09 11:06:12;;;;;;;14.52;7.15;;;25.80;68.60;;;;;;4921182;29;20088;-85
2021/09/09 11:08:41;;;;;;;12.82;7.20;;;25.80;66.60;;;;;;4919666;29;20503;-85
2021/09/09 11:11:08;;;;;;;13.48;7.20;;;25.90;63.80;;;;;;4905840;29;20048;-85
2021/09/09 11:13:36;;;;;;;9.05;6.13;;;25.90;65.50;;;;;;4923398;29;20514;-86
2021/09/09 11:16:18;;;;;;;14.18;7.10;;;26.00;65.60;;;;;;4913459;29;20058;-85
2021/09/09 11:18:44;;;;;;;10.88;6.97;;;26.10;62.60;;;;;;4928880;29;20051;-85
2021/09/09 11:21:09;;;;;;;9.82;6.72;;;26.20;62.90;;;;;;4936712;29;20043;-86
2021/09/09 11:23:36;;;;;;;8.60;6.75;;;26.20;61.30;;;;;;4919998;29;20070;-85
2021/09/09 11:26:14;;;;;;;9.75;6.93;;;26.30;62.20;;;;;;4919738;29;20044;-85
2021/09/09 11:28:40;;;;;;;10.20;6.88;;;26.30;63.20;;;;;;4934832;29;20048;-85
2021/09/09 11:31:18;;;;;;;9.45;6.50;;;26.40;63.00;;;;;;4920124;29;20066;-85
2021/09/09 11:34:01;;;;;;;11.45;6.82;;;26.40;60.70;;;;;;4937143;29;20047;-85
2021/09/09 11:36:28;;;;;;;9.18;7.05;;;26.50;61.10;;;;;;4937469;29;20075;-84
2021/09/09 11:38:57;;;;;;;10.77;7.03;;;26.50;59.90;;;;;;4919016;29;20119;-85
2021/09/09 11:41:24;;;;;;;9.57;6.63;;;26.50;61.80;;;;;;4918785;29;20419;-86
2021/09/09 11:44:02;;;;;;;10.57;6.88;;;26.60;59.40;;;;;;4919541;29;20043;-85
2021/09/09 11:46:39;;;;;;;12.65;6.78;;;26.60;60.50;;;;;;4915551;29;20047;-86
2021/09/09 11:49:10;;;;;;;8.57;6.88;;;26.60;61.70;;;;;;4917522;29;20056;-85
2021/09/09 11:51:44;;;;;;;9.32;6.90;;;26.70;61.80;;;;;;4935571;29;20050;-85
2021/09/09 11:54:15;;;;;;;11.32;7.10;;;26.70;59.30;;;;;;4919396;29;20083;-85
2021/09/09 11:56:41;;;;;;;11.07;6.72;;;26.80;60.40;;;;;;4919760;29;20048;-86
2021/09/09 11:59:18;;;;;;;9.52;6.53;;;26.90;59.10;;;;;;4919650;29;20054;-83
2021/09/09 12:01:46;;;;;;;9.73;6.60;;;26.90;58.20;;;;;;4915509;29;20052;-83
2021/09/09 12:04:12;;;;;;;11.48;6.90;;;26.90;59.90;;;;;;4906789;29;20067;-83
2021/09/09 12:06:38;;;;;;;10.07;6.72;;;27.00;59.50;;;;;;4915399;29;20115;-83
2021/09/09 12:09:04;;;;;;;10.57;6.93;;;27.00;58.10;;;;;;4906982;29;20440;-83
2021/09/09 12:11:30;;;;;;;11.57;7.20;;;27.10;58.10;;;;;;4936411;29;20032;-83
2021/09/09 12:13:56;;;;;;;10.45;6.82;;;27.10;60.30;;;;;;4918448;29;20479;-84
2021/09/09 12:16:24;;;;;;;13.48;6.63;;;27.10;59.40;;;;;;4919107;29;20047;-84
2021/09/09 12:19:02;;;;;;;9.43;6.70;;;27.10;59.30;;;;;;4919229;29;20055;-84
2021/09/09 12:21:28;;;;;;;12.35;6.85;;;27.20;59.80;;;;;;4935921;29;20050;-83
2021/09/09 12:24:05;;;;;;;8.57;6.70;;;27.20;61.10;;;;;;4919078;29;20044;-85
2021/09/09 12:26:35;;;;;;;10.18;6.88;;;27.30;61.50;;;;;;4936479;29;20051;-84
2021/09/09 12:29:17;;;;;;;9.90;6.75;;;27.30;59.80;;;;;;4918480;29;20503;-84
2021/09/09 12:31:44;;;;;;;11.38;7.20;;;27.30;60.70;;;;;;4919287;29;20056;-84
2021/09/09 12:34:12;;;;;;;9.45;6.72;;;27.40;61.20;;;;;;4919353;29;20056;-83
2021/09/09 12:36:46;;;;;;;12.13;6.90;;;27.40;59.50;;;;;;4917775;29;20031;-85
2021/09/09 12:39:13;;;;;;;9.10;6.88;;;27.50;59.50;;;;;;4915777;29;20064;-84
2021/09/09 12:41:39;;;;;;;10.00;6.78;;;27.50;62.50;;;;;;4899702;29;20055;-85